Time;durP1;ratioP1;P1;durP2;ratioP2;P2;SDS_P1;SDS_P2;PMS_P1;PMS_P2;Temp;Humidity;BMP_temperature;BMP_pressure;BME280_temperature;BME280_humidity;BME280_pressure;Samples;Min_cycle;Max_cycle;Signal;HPM_P1;HPM_P2
2023/04/20 00:00:16;;;;;;;39.38;7.68;;;13.30;82.00;;;;;;5045928;28;20026;-59
2023/04/20 00:02:42;;;;;;;29.23;6.78;;;13.30;82.00;;;;;;5044412;28;20088;-59
2023/04/20 00:05:08;;;;;;;35.42;6.43;;;13.20;82.00;;;;;;5044487;28;20026;-59
2023/04/20 00:07:34;;;;;;;49.85;6.60;;;13.20;82.10;;;;;;5044294;28;20048;-59
2023/04/20 00:10:00;;;;;;;41.60;8.05;;;13.20;82.20;;;;;;5044484;28;20021;-59
2023/04/20 00:12:25;;;;;;;47.65;8.43;;;13.20;82.10;;;;;;5045766;28;20053;-59
2023/04/20 00:14:52;;;;;;;33.80;7.55;;;13.10;82.10;;;;;;5044412;28;20056;-59
2023/04/20 00:17:17;;;;;;;43.13;7.32;;;13.10;82.20;;;;;;5045446;28;20065;-59
2023/04/20 00:19:43;;;;;;;31.70;6.13;;;13.10;82.30;;;;;;5044335;28;20022;-58
2023/04/20 00:22:09;;;;;;;30.65;7.00;;;13.10;82.30;;;;;;5044132;28;20029;-59
2023/04/20 00:24:34;;;;;;;36.80;8.10;;;13.10;82.30;;;;;;5045667;28;20048;-59
2023/04/20 00:27:00;;;;;;;33.05;8.32;;;13.10;82.30;;;;;;5044069;28;20044;-58
2023/04/20 00:29:25;;;;;;;28.13;7.78;;;13.00;82.30;;;;;;5043916;28;20086;-59
2023/04/20 00:31:51;;;;;;;20.63;7.22;;;13.00;82.30;;;;;;5044117;28;20371;-59
2023/04/20 00:34:16;;;;;;;32.10;7.68;;;13.00;82.40;;;;;;5044026;28;20029;-59
2023/04/20 00:36:43;;;;;;;39.88;8.15;;;13.00;82.50;;;;;;5044050;28;20091;-59
2023/04/20 00:39:09;;;;;;;32.15;7.68;;;12.90;82.40;;;;;;5043902;28;20033;-59
2023/04/20 00:41:34;;;;;;;32.75;8.05;;;12.90;82.40;;;;;;5043822;28;20026;-59
2023/04/20 00:44:00;;;;;;;24.65;6.57;;;12.90;82.40;;;;;;5045081;28;20021;-59
2023/04/20 00:46:26;;;;;;;22.60;6.65;;;12.90;82.50;;;;;;5043844;28;20033;-59
2023/04/20 00:48:51;;;;;;;31.20;7.57;;;12.90;82.50;;;;;;5043853;28;20035;-59
2023/04/20 00:51:17;;;;;;;24.88;6.55;;;12.90;83.20;;;;;;5044963;28;20083;-59
2023/04/20 00:53:45;;;;;;;27.52;7.10;;;12.80;82.60;;;;;;5043834;28;20022;-59
2023/04/20 00:56:12;;;;;;;36.45;6.72;;;12.90;82.70;;;;;;5045179;28;20140;-59
2023/04/20 00:58:37;;;;;;;30.40;7.47;;;12.80;82.70;;;;;;5043612;28;20042;-59
2023/04/20 01:01:04;;;;;;;22.23;7.22;;;12.80;83.40;;;;;;5043605;28;20032;-59
2023/04/20 01:03:30;;;;;;;30.15;6.65;;;12.80;82.80;;;;;;5042858;28;20022;-59
2023/04/20 01:05:55;;;;;;;22.85;6.38;;;12.80;82.70;;;;;;5043558;28;20036;-59
2023/04/20 01:08:25;;;;;;;30.00;6.65;;;12.80;82.70;;;;;;5043466;28;20026;-59
2023/04/20 01:10:50;;;;;;;20.17;5.93;;;12.80;82.60;;;;;;5043535;28;20092;-59
2023/04/20 01:13:16;;;;;;;23.75;6.53;;;12.80;82.70;;;;;;5044909;28;20048;-59
2023/04/20 01:15:42;;;;;;;21.65;6.30;;;12.80;83.40;;;;;;5044903;28;20057;-59
2023/04/20 01:18:08;;;;;;;26.77;7.22;;;12.70;82.70;;;;;;5044662;28;20060;-59
2023/04/20 01:20:33;;;;;;;24.55;7.45;;;12.70;82.70;;;;;;5044872;28;20029;-59
2023/04/20 01:22:59;;;;;;;21.42;7.72;;;12.70;82.80;;;;;;5026802;28;20021;-58
2023/04/20 01:25:25;;;;;;;31.58;7.30;;;12.70;82.80;;;;;;5044714;28;20087;-59
2023/04/20 01:27:50;;;;;;;17.30;7.85;;;12.70;83.00;;;;;;5043288;28;20064;-59
2023/04/20 01:30:16;;;;;;;16.60;6.85;;;12.70;82.90;;;;;;5043222;28;20121;-59
2023/04/20 01:32:41;;;;;;;24.25;7.60;;;12.60;82.90;;;;;;5043396;28;20086;-58
2023/04/20 01:35:07;;;;;;;23.30;7.63;;;12.60;82.80;;;;;;5043178;28;20037;-59
2023/04/20 01:37:33;;;;;;;18.40;7.20;;;12.60;82.90;;;;;;5044692;28;20030;-59
2023/04/20 01:39:59;;;;;;;24.13;7.53;;;12.60;83.10;;;;;;5044750;28;20042;-59
2023/04/20 01:42:24;;;;;;;20.58;7.63;;;12.60;83.00;;;;;;5043242;28;20025;-59
2023/04/20 01:44:50;;;;;;;23.95;8.65;;;12.60;83.10;;;;;;5043190;28;20051;-59
2023/04/20 01:47:15;;;;;;;14.55;7.65;;;12.60;83.20;;;;;;5043121;28;20040;-59
2023/04/20 01:49:41;;;;;;;19.73;7.88;;;12.50;83.30;;;;;;5044446;28;20038;-59
2023/04/20 01:52:08;;;;;;;14.73;8.50;;;12.50;83.30;;;;;;5042993;28;20044;-59
2023/04/20 01:54:33;;;;;;;28.77;8.70;;;12.50;83.50;;;;;;5042897;28;20602;-59
2023/04/20 01:56:59;;;;;;;26.40;10.07;;;12.50;83.60;;;;;;5044294;28;20060;-59
2023/04/20 01:59:25;;;;;;;19.58;9.07;;;12.50;83.60;;;;;;5043150;28;20037;-59
2023/04/20 02:01:50;;;;;;;21.83;8.05;;;12.50;83.70;;;;;;5043550;28;20029;-59
2023/04/20 02:04:16;;;;;;;20.30;7.47;;;12.50;83.80;;;;;;5044455;28;20063;-60
2023/04/20 02:06:41;;;;;;;16.77;6.60;;;12.50;83.90;;;;;;5043023;28;20026;-59
2023/04/20 02:09:08;;;;;;;22.48;7.32;;;12.50;83.90;;;;;;5044314;28;20036;-59
2023/04/20 02:11:34;;;;;;;16.42;7.10;;;12.50;84.00;;;;;;5045104;28;20121;-59
2023/04/20 02:13:59;;;;;;;19.83;6.95;;;12.40;84.00;;;;;;5045217;28;20180;-59
2023/04/20 02:16:28;;;;;;;14.95;7.20;;;12.50;84.00;;;;;;5046938;28;20055;-59
2023/04/20 02:18:53;;;;;;;14.02;7.00;;;12.50;84.00;;;;;;5046432;28;20140;-58
2023/04/20 02:21:19;;;;;;;19.02;7.10;;;12.50;84.00;;;;;;5048089;28;20068;-59
2023/04/20 02:23:45;;;;;;;16.17;6.25;;;12.40;84.00;;;;;;5046560;28;20028;-59
2023/04/20 02:26:10;;;;;;;20.80;7.45;;;12.40;84.00;;;;;;5046419;28;20025;-59
2023/04/20 02:28:36;;;;;;;18.42;6.65;;;12.40;84.20;;;;;;5046285;28;20386;-59
2023/04/20 02:31:02;;;;;;;19.75;6.53;;;12.40;84.30;;;;;;5046279;28;20124;-59
2023/04/20 02:33:27;;;;;;;19.15;7.50;;;12.40;84.40;;;;;;5029668;28;20029;-59
2023/04/20 02:35:53;;;;;;;17.85;7.78;;;12.40;84.40;;;;;;5046206;28;20171;-59
2023/04/20 02:38:18;;;;;;;15.85;8.45;;;12.40;84.40;;;;;;5047873;28;20029;-59
2023/04/20 02:40:44;;;;;;;16.58;7.88;;;12.40;84.40;;;;;;5047744;28;20041;-59
2023/04/20 02:43:09;;;;;;;18.27;7.90;;;12.40;84.50;;;;;;5047333;28;20392;-59
2023/04/20 02:45:35;;;;;;;19.52;7.97;;;12.40;85.20;;;;;;5047345;28;20025;-59
2023/04/20 02:48:01;;;;;;;19.38;8.70;;;12.40;84.60;;;;;;5045906;28;20030;-59
2023/04/20 02:50:26;;;;;;;22.38;8.80;;;12.40;84.70;;;;;;5046045;28;20025;-59
2023/04/20 02:52:52;;;;;;;15.52;7.93;;;12.30;84.80;;;;;;5045777;28;20052;-58
2023/04/20 02:55:17;;;;;;;16.02;8.02;;;12.30;84.80;;;;;;5045879;28;20036;-59
2023/04/20 02:57:43;;;;;;;18.33;8.13;;;12.30;84.80;;;;;;5045642;28;20037;-59
2023/04/20 03:00:12;;;;;;;15.40;7.82;;;12.30;84.90;;;;;;5045861;28;20029;-59
2023/04/20 03:02:37;;;;;;;18.92;8.18;;;12.30;85.00;;;;;;5047121;28;20025;-59
2023/04/20 03:05:03;;;;;;;24.40;9.15;;;12.30;85.10;;;;;;5045675;28;20126;-58
2023/04/20 03:07:29;;;;;;;18.33;8.88;;;12.30;85.10;;;;;;5045769;28;20033;-59
2023/04/20 03:09:55;;;;;;;23.55;10.15;;;12.30;85.10;;;;;;5045731;28;20033;-59
2023/04/20 03:12:21;;;;;;;17.80;9.23;;;12.20;85.10;;;;;;5046905;28;20118;-59
2023/04/20 03:14:46;;;;;;;19.52;9.73;;;12.30;85.20;;;;;;5045579;28;20033;-59
2023/04/20 03:17:12;;;;;;;20.27;9.57;;;12.30;85.20;;;;;;5028862;28;20088;-59
2023/04/20 03:19:37;;;;;;;22.23;9.85;;;12.30;85.20;;;;;;5045404;28;20085;-59
2023/04/20 03:22:03;;;;;;;19.77;9.35;;;12.20;85.20;;;;;;5045308;28;20033;-59
2023/04/20 03:24:29;;;;;;;29.25;10.20;;;12.20;85.90;;;;;;5045198;28;20080;-59
2023/04/20 03:26:54;;;;;;;18.55;9.18;;;12.20;85.20;;;;;;5044718;28;20434;-59
2023/04/20 03:29:20;;;;;;;15.57;9.43;;;12.20;85.30;;;;;;5045233;28;20662;-59
2023/04/20 03:31:46;;;;;;;24.05;9.90;;;12.20;85.30;;;;;;5046630;28;20529;-59
2023/04/20 03:34:11;;;;;;;34.38;11.05;;;12.20;85.30;;;;;;5046552;28;20045;-59
2023/04/20 03:36:37;;;;;;;17.83;9.32;;;12.20;85.30;;;;;;5046598;28;20029;-59
2023/04/20 03:39:03;;;;;;;17.17;10.02;;;12.10;85.30;;;;;;5045145;28;20037;-60
2023/04/20 03:41:30;;;;;;;40.17;10.95;;;12.10;85.30;;;;;;5046551;28;20021;-59
2023/04/20 03:43:55;;;;;;;35.53;11.07;;;12.10;85.30;;;;;;5028417;28;20041;-59
2023/04/20 03:46:21;;;;;;;35.67;12.15;;;12.10;85.40;;;;;;5028436;28;20021;-60
2023/04/20 03:48:46;;;;;;;45.67;11.55;;;12.10;85.40;;;;;;5046248;28;20026;-59
2023/04/20 03:51:12;;;;;;;38.95;11.27;;;12.10;85.40;;;;;;5044747;28;20060;-60
2023/04/20 03:53:37;;;;;;;32.97;10.85;;;12.10;85.20;;;;;;5028316;28;20029;-59
2023/04/20 03:56:03;;;;;;;29.13;10.05;;;12.10;85.20;;;;;;5044744;28;20025;-59
2023/04/20 03:58:29;;;;;;;25.98;9.50;;;12.10;85.20;;;;;;5044690;28;20037;-60
2023/04/20 04:01:03;;;;;;;33.55;10.32;;;12.10;85.20;;;;;;5046017;28;20039;-59
2023/04/20 04:03:28;;;;;;;41.05;11.45;;;12.00;85.10;;;;;;5044542;28;20033;-60
2023/04/20 04:05:54;;;;;;;23.65;9.20;;;12.00;85.20;;;;;;5028025;28;20060;-59
2023/04/20 04:08:19;;;;;;;37.88;9.90;;;12.00;85.20;;;;;;5044757;28;20469;-60
2023/04/20 04:10:45;;;;;;;43.72;11.65;;;12.00;85.30;;;;;;5045798;28;20046;-59
2023/04/20 04:13:11;;;;;;;42.85;11.38;;;12.00;85.30;;;;;;5044481;28;20036;-59
2023/04/20 04:15:36;;;;;;;40.10;10.80;;;12.00;85.30;;;;;;5044353;28;20030;-59
2023/04/20 04:18:02;;;;;;;37.13;9.15;;;12.00;85.40;;;;;;5028626;28;20124;-59
2023/04/20 04:20:27;;;;;;;33.85;10.50;;;12.00;85.40;;;;;;5046341;28;20028;-59
2023/04/20 04:22:53;;;;;;;28.88;9.10;;;12.00;85.30;;;;;;5045675;28;20029;-59
2023/04/20 04:25:19;;;;;;;29.63;8.98;;;11.90;85.40;;;;;;5045420;28;20033;-59
2023/04/20 04:27:45;;;;;;;30.10;8.82;;;11.90;85.40;;;;;;5044218;28;20107;-59
2023/04/20 04:30:12;;;;;;;27.08;8.57;;;11.90;85.40;;;;;;5044100;28;20026;-59
2023/04/20 04:32:38;;;;;;;29.25;8.23;;;11.90;85.50;;;;;;5043920;28;20029;-59
2023/04/20 04:35:04;;;;;;;26.85;9.00;;;11.80;85.50;;;;;;5044085;28;20037;-59
2023/04/20 04:37:29;;;;;;;28.13;8.23;;;11.80;85.50;;;;;;5045248;28;20037;-59
2023/04/20 04:39:57;;;;;;;33.13;9.02;;;11.80;85.50;;;;;;5045403;28;20021;-59
2023/04/20 04:42:23;;;;;;;27.58;7.53;;;11.80;85.60;;;;;;5043973;28;20029;-59
2023/04/20 04:44:51;;;;;;;25.55;8.80;;;11.80;85.70;;;;;;5043891;28;20048;-59
2023/04/20 04:47:18;;;;;;;21.55;7.05;;;11.80;85.80;;;;;;5045256;28;20033;-59
2023/04/20 04:49:44;;;;;;;21.85;7.05;;;11.80;85.90;;;;;;5045153;28;20029;-59
2023/04/20 04:52:09;;;;;;;26.80;6.80;;;11.80;85.90;;;;;;5043589;28;20037;-59
2023/04/20 04:54:35;;;;;;;24.42;6.57;;;11.80;85.90;;;;;;5043628;28;20030;-60
2023/04/20 04:57:01;;;;;;;19.48;7.40;;;11.80;86.10;;;;;;5043622;28;20025;-59
2023/04/20 04:59:27;;;;;;;37.40;6.85;;;11.70;86.20;;;;;;5043744;28;20041;-59
2023/04/20 05:01:52;;;;;;;24.80;7.47;;;11.80;86.10;;;;;;5043731;28;20037;-60
2023/04/20 05:04:18;;;;;;;20.38;6.55;;;11.80;86.00;;;;;;5043741;28;20123;-59
2023/04/20 05:06:43;;;;;;;19.70;6.60;;;11.80;86.00;;;;;;5043516;28;20454;-59
2023/04/20 05:09:09;;;;;;;26.17;6.80;;;11.80;86.10;;;;;;5043540;28;20042;-59
2023/04/20 05:11:34;;;;;;;20.05;6.75;;;11.80;86.10;;;;;;5043571;28;20026;-59
2023/04/20 05:14:02;;;;;;;20.30;6.15;;;11.80;86.10;;;;;;5043349;28;20028;-59
2023/04/20 05:16:28;;;;;;;18.65;5.82;;;11.70;86.20;;;;;;5043351;28;20108;-60
2023/04/20 05:18:53;;;;;;;20.75;5.90;;;11.70;86.20;;;;;;5045805;28;20547;-59
2023/04/20 05:21:19;;;;;;;13.60;5.72;;;11.70;86.40;;;;;;5043535;28;20045;-59
2023/04/20 05:23:44;;;;;;;10.13;5.97;;;11.70;86.50;;;;;;5043323;28;20388;-60
2023/04/20 05:26:10;;;;;;;15.27;4.93;;;11.70;86.60;;;;;;5043234;28;20033;-59
2023/04/20 05:28:35;;;;;;;15.25;5.53;;;11.60;86.60;;;;;;5042675;28;20469;-59
2023/04/20 05:31:01;;;;;;;15.38;4.93;;;11.60;86.70;;;;;;5042756;28;20029;-59
2023/04/20 05:33:27;;;;;;;10.90;5.15;;;11.60;86.70;;;;;;5044594;28;20029;-56
2023/04/20 05:35:56;;;;;;;12.00;5.22;;;11.60;86.70;;;;;;5043265;28;20081;-56
2023/04/20 05:38:21;;;;;;;15.50;5.47;;;11.60;86.80;;;;;;5026650;28;20041;-56
2023/04/20 05:40:47;;;;;;;15.35;5.30;;;11.50;86.80;;;;;;5044661;28;20048;-57
2023/04/20 05:43:12;;;;;;;16.13;5.40;;;11.60;86.80;;;;;;5044639;28;20362;-56
2023/04/20 05:45:38;;;;;;;14.70;5.57;;;11.60;86.80;;;;;;5043065;28;20090;-56
2023/04/20 05:48:04;;;;;;;11.52;5.05;;;11.60;86.80;;;;;;5043435;28;20033;-56
2023/04/20 05:50:30;;;;;;;11.30;4.63;;;11.50;86.80;;;;;;5047300;28;20078;-56
2023/04/20 05:52:55;;;;;;;13.55;4.90;;;11.50;86.70;;;;;;5048523;28;20064;-56
2023/04/20 05:55:21;;;;;;;14.07;4.80;;;11.50;86.80;;;;;;5047002;28;20025;-56
2023/04/20 05:57:46;;;;;;;11.98;4.55;;;11.50;86.80;;;;;;5048199;28;20042;-56
2023/04/20 06:00:14;;;;;;;10.88;4.22;;;11.50;86.80;;;;;;5046003;28;20434;-56
2023/04/20 06:02:40;;;;;;;13.30;4.78;;;11.50;86.80;;;;;;5046667;28;20097;-56
2023/04/20 06:05:06;;;;;;;7.55;4.13;;;11.50;86.80;;;;;;5046728;28;20029;-56
2023/04/20 06:07:32;;;;;;;17.00;4.78;;;11.50;86.90;;;;;;5046602;28;20065;-56
2023/04/20 06:09:59;;;;;;;57.72;7.78;;;11.50;86.90;;;;;;5048031;28;20030;-56
2023/04/20 06:12:25;;;;;;;48.53;8.13;;;11.40;87.00;;;;;;5027904;28;20095;-56
2023/04/20 06:14:50;;;;;;;55.70;9.00;;;11.40;87.10;;;;;;5045756;28;20052;-56
2023/04/20 06:17:16;;;;;;;55.10;8.75;;;11.40;87.10;;;;;;5045288;28;20031;-56
2023/04/20 06:19:42;;;;;;;42.15;7.65;;;11.40;87.10;;;;;;5045235;28;20026;-56
2023/04/20 06:22:08;;;;;;;56.05;9.88;;;11.40;87.20;;;;;;5047016;28;20118;-56
2023/04/20 06:24:34;;;;;;;47.22;9.02;;;11.40;87.30;;;;;;5044475;28;20037;-56
2023/04/20 06:27:00;;;;;;;74.80;12.27;;;11.40;87.30;;;;;;5047616;28;20029;-56
2023/04/20 06:29:26;;;;;;;74.60;10.02;;;11.40;87.40;;;;;;5047432;28;20034;-56
2023/04/20 06:31:52;;;;;;;56.05;10.02;;;11.40;87.50;;;;;;5045930;28;20501;-56
2023/04/20 06:34:18;;;;;;;50.58;10.10;;;11.40;87.50;;;;;;5045880;28;20029;-56
2023/04/20 06:36:43;;;;;;;59.63;9.50;;;11.40;87.40;;;;;;5047331;28;20033;-56
2023/04/20 06:39:10;;;;;;;57.60;9.63;;;11.40;87.50;;;;;;5045683;28;20037;-56
2023/04/20 06:41:37;;;;;;;71.10;9.95;;;11.40;87.40;;;;;;5045875;28;20049;-56
2023/04/20 06:44:03;;;;;;;54.45;9.73;;;11.40;87.40;;;;;;5045721;28;20025;-56
2023/04/20 06:46:28;;;;;;;45.17;8.63;;;11.40;87.40;;;;;;5045680;28;20029;-55
2023/04/20 06:48:54;;;;;;;68.35;9.10;;;11.40;87.40;;;;;;5045494;28;20030;-56
2023/04/20 06:51:19;;;;;;;65.60;10.07;;;11.30;87.50;;;;;;5045658;28;20037;-56
2023/04/20 06:53:45;;;;;;;55.25;10.05;;;11.40;87.60;;;;;;5045841;28;20093;-56
2023/04/20 06:56:11;;;;;;;54.38;9.70;;;11.40;87.50;;;;;;5028306;28;20036;-55
2023/04/20 06:58:36;;;;;;;64.88;8.57;;;11.30;87.50;;;;;;5038965;28;20446;-56
2023/04/20 07:01:02;;;;;;;56.70;8.75;;;11.40;87.40;;;;;;5041124;28;20052;-56
2023/04/20 07:03:27;;;;;;;109.90;12.07;;;11.40;87.20;;;;;;5041534;28;20501;-56
2023/04/20 07:05:53;;;;;;;97.13;12.52;;;11.40;87.40;;;;;;5027609;28;20137;-56
2023/04/20 07:08:19;;;;;;;71.45;10.75;;;11.40;87.70;;;;;;5026718;28;20057;-57
2023/04/20 07:10:44;;;;;;;99.22;12.43;;;11.40;87.70;;;;;;5025292;28;20029;-56
2023/04/20 07:13:10;;;;;;;97.18;12.88;;;11.40;87.50;;;;;;5026841;28;20029;-56
2023/04/20 07:15:35;;;;;;;135.50;14.32;;;11.40;87.40;;;;;;5042031;28;20018;-55
2023/04/20 07:18:01;;;;;;;92.65;12.23;;;11.40;87.30;;;;;;5042606;28;20109;-57
2023/04/20 07:20:27;;;;;;;72.80;12.13;;;11.40;87.20;;;;;;5045130;28;20037;-56
2023/04/20 07:22:52;;;;;;;69.18;9.32;;;11.40;87.10;;;;;;5044552;28;20037;-56
2023/04/20 07:25:18;;;;;;;93.10;12.38;;;11.40;87.20;;;;;;5041996;28;20065;-56
2023/04/20 07:27:44;;;;;;;66.35;11.02;;;11.40;87.70;;;;;;5025393;28;20034;-56
2023/04/20 07:30:10;;;;;;;92.65;11.52;;;11.40;87.00;;;;;;5041932;28;20029;-56
2023/04/20 07:32:35;;;;;;;79.95;11.25;;;11.40;87.00;;;;;;5042128;28;20034;-56
2023/04/20 07:35:02;;;;;;;69.10;10.70;;;11.40;86.90;;;;;;5027050;28;20517;-56
2023/04/20 07:37:28;;;;;;;72.68;9.23;;;11.40;86.90;;;;;;5025249;28;20036;-56
2023/04/20 07:39:53;;;;;;;84.38;10.85;;;11.40;86.80;;;;;;5025768;28;20050;-56
2023/04/20 07:42:20;;;;;;;83.28;9.82;;;11.40;86.90;;;;;;5041657;28;20030;-57
2023/04/20 07:44:46;;;;;;;88.53;11.13;;;11.40;86.80;;;;;;5041439;28;20028;-56
2023/04/20 07:47:11;;;;;;;74.55;10.90;;;11.40;86.80;;;;;;5024594;28;20542;-56
2023/04/20 07:49:39;;;;;;;76.40;11.27;;;11.40;86.90;;;;;;5041188;28;20026;-56
2023/04/20 07:52:05;;;;;;;93.80;11.45;;;11.50;87.00;;;;;;5040833;28;20042;-56
2023/04/20 07:54:31;;;;;;;67.43;9.95;;;11.40;86.80;;;;;;5026048;28;20060;-56
2023/04/20 07:56:57;;;;;;;93.95;11.82;;;11.40;86.70;;;;;;5028848;28;20037;-56
2023/04/20 07:59:23;;;;;;;65.35;10.35;;;11.40;86.70;;;;;;5044111;28;20037;-56
2023/04/20 08:01:49;;;;;;;73.13;11.05;;;11.50;86.80;;;;;;5044550;28;20054;-56
2023/04/20 08:04:15;;;;;;;66.28;9.63;;;11.40;86.70;;;;;;5044342;28;20160;-56
2023/04/20 08:06:40;;;;;;;84.57;12.13;;;11.40;86.60;;;;;;5023668;28;20034;-56
2023/04/20 08:09:06;;;;;;;67.65;9.50;;;11.40;86.80;;;;;;5024458;28;20057;-56
2023/04/20 08:11:32;;;;;;;82.28;11.15;;;11.40;86.80;;;;;;5026002;28;20081;-56
2023/04/20 08:13:58;;;;;;;61.05;9.40;;;11.40;86.80;;;;;;5031516;28;20339;-56
2023/04/20 08:16:23;;;;;;;53.20;8.88;;;11.40;86.90;;;;;;5040724;28;20037;-55
2023/04/20 08:18:49;;;;;;;47.78;7.95;;;11.40;86.90;;;;;;5024153;28;20037;-57
2023/04/20 08:21:14;;;;;;;54.17;8.75;;;11.40;86.90;;;;;;5036899;28;20465;-56
2023/04/20 08:23:40;;;;;;;80.43;9.88;;;11.40;86.80;;;;;;5045127;28;20071;-56
2023/04/20 08:26:05;;;;;;;75.10;8.48;;;11.40;86.80;;;;;;5044197;28;20488;-56
2023/04/20 08:28:31;;;;;;;58.88;8.68;;;11.40;86.80;;;;;;5033185;28;20033;-56
2023/04/20 08:30:56;;;;;;;56.08;7.65;;;11.40;86.70;;;;;;5023811;28;20034;-57
2023/04/20 08:33:22;;;;;;;55.85;8.60;;;11.40;86.70;;;;;;5023595;28;20034;-56
2023/04/20 08:35:50;;;;;;;61.20;8.85;;;11.40;86.70;;;;;;5022855;28;20470;-56
2023/04/20 08:38:16;;;;;;;63.80;7.70;;;11.40;86.80;;;;;;5007188;28;20033;-56
2023/04/20 08:40:41;;;;;;;47.67;7.32;;;11.40;86.80;;;;;;5022910;28;20026;-56
2023/04/20 08:43:07;;;;;;;56.45;8.90;;;11.50;86.70;;;;;;5006177;28;20068;-56
2023/04/20 08:45:33;;;;;;;58.08;7.80;;;11.40;86.60;;;;;;5021992;28;20030;-56
2023/04/20 08:47:58;;;;;;;53.65;7.82;;;11.50;86.70;;;;;;5023594;28;20034;-56
2023/04/20 08:50:24;;;;;;;96.20;10.50;;;11.50;86.70;;;;;;5021850;28;20034;-57
2023/04/20 08:52:49;;;;;;;66.50;8.93;;;11.50;86.50;;;;;;5021511;28;20546;-56
2023/04/20 08:55:16;;;;;;;61.90;8.43;;;11.50;86.50;;;;;;5038967;28;20350;-57
2023/04/20 08:57:41;;;;;;;62.97;8.00;;;11.50;86.50;;;;;;5042737;28;20061;-56
2023/04/20 09:00:09;;;;;;;48.63;7.15;;;11.50;86.40;;;;;;5042576;28;20034;-56
2023/04/20 09:02:37;;;;;;;42.95;6.75;;;11.50;86.40;;;;;;5043436;28;20022;-56
2023/04/20 09:05:04;;;;;;;51.83;7.90;;;11.50;86.90;;;;;;5043182;28;20037;-55
2023/04/20 09:07:29;;;;;;;49.33;7.78;;;11.60;86.40;;;;;;5044837;28;20203;-56
2023/04/20 09:09:57;;;;;;;64.93;7.95;;;11.60;86.50;;;;;;5043128;28;20037;-55
2023/04/20 09:12:23;;;;;;;52.20;8.27;;;11.60;86.50;;;;;;5043608;28;20057;-56
2023/04/20 09:14:49;;;;;;;46.78;8.43;;;11.60;86.50;;;;;;5044574;28;20113;-56
2023/04/20 09:17:16;;;;;;;49.17;7.32;;;11.70;87.00;;;;;;5043039;28;20037;-56
2023/04/20 09:19:51;;;;;;;32.00;6.90;;;11.70;86.30;;;;;;5043440;28;20049;-56
2023/04/20 09:22:16;;;;;;;56.50;7.03;;;11.70;86.20;;;;;;5026634;28;20207;-57
2023/04/20 09:24:42;;;;;;;42.33;7.28;;;11.70;86.10;;;;;;5042470;28;20025;-56
2023/04/20 09:27:16;;;;;;;50.90;8.07;;;11.80;86.20;;;;;;5042938;28;20174;-56
2023/04/20 09:29:42;;;;;;;44.05;6.55;;;11.70;86.20;;;;;;5044634;28;20053;-56
2023/04/20 09:32:18;;;;;;;47.72;7.43;;;11.80;86.30;;;;;;5043066;28;20029;-56
2023/04/20 09:34:44;;;;;;;49.40;7.57;;;11.80;86.30;;;;;;5043280;28;20033;-57
2023/04/20 09:37:10;;;;;;;46.47;7.25;;;11.80;86.40;;;;;;5026573;28;20029;-56
2023/04/20 09:39:35;;;;;;;48.53;7.53;;;11.80;86.50;;;;;;5043589;28;20025;-56
2023/04/20 09:42:02;;;;;;;49.92;7.50;;;11.90;86.60;;;;;;5026796;28;20108;-56
2023/04/20 09:44:28;;;;;;;49.97;8.15;;;11.80;86.50;;;;;;5044312;28;20026;-56
2023/04/20 09:46:54;;;;;;;70.97;8.88;;;11.80;86.70;;;;;;5042923;28;20033;-56
2023/04/20 09:49:20;;;;;;;45.47;7.60;;;11.90;86.80;;;;;;5043104;28;20038;-56
2023/04/20 09:51:45;;;;;;;43.00;8.13;;;11.90;86.80;;;;;;5042686;28;20042;-56
2023/04/20 09:54:11;;;;;;;49.20;7.72;;;11.80;86.70;;;;;;5043049;28;20036;-56
2023/04/20 09:56:37;;;;;;;57.28;8.00;;;11.90;87.10;;;;;;5043031;28;20026;-57
2023/04/20 09:59:03;;;;;;;74.18;9.50;;;11.90;86.80;;;;;;5042848;28;20371;-56
2023/04/20 10:01:33;;;;;;;39.55;7.25;;;11.90;86.80;;;;;;5026482;28;20037;-56
2023/04/20 10:03:59;;;;;;;47.17;7.03;;;11.90;86.80;;;;;;5042699;28;20075;-56
2023/04/20 10:06:27;;;;;;;51.88;7.85;;;11.90;86.80;;;;;;5042794;28;20033;-56
2023/04/20 10:08:53;;;;;;;60.63;9.80;;;11.90;86.70;;;;;;5044120;28;20100;-56
2023/04/20 10:11:27;;;;;;;69.72;9.20;;;11.90;86.90;;;;;;5042664;28;20496;-56
2023/04/20 10:13:53;;;;;;;97.93;12.20;;;12.00;86.80;;;;;;5042646;28;20025;-56
2023/04/20 10:16:19;;;;;;;49.72;8.15;;;12.00;87.10;;;;;;5044220;28;20093;-56
2023/04/20 10:19:02;;;;;;;60.45;10.40;;;11.90;87.00;;;;;;5044158;28;20025;-56
2023/04/20 10:21:28;;;;;;;96.10;12.85;;;12.00;87.10;;;;;;5042985;28;20070;-56
2023/04/20 10:23:55;;;;;;;74.78;10.88;;;12.00;87.20;;;;;;5032160;28;20026;-56
2023/04/20 10:26:21;;;;;;;75.65;11.18;;;11.90;87.30;;;;;;5051409;28;20030;-56
2023/04/20 10:28:47;;;;;;;71.55;9.93;;;11.90;87.20;;;;;;5038933;28;20026;-56
2023/04/20 10:31:14;;;;;;;85.68;11.35;;;12.00;87.20;;;;;;5045280;28;20045;-56
2023/04/20 10:33:53;;;;;;;133.38;13.90;;;11.90;87.10;;;;;;5047658;28;20074;-56
2023/04/20 10:36:22;;;;;;;90.35;12.43;;;12.00;87.40;;;;;;5040878;28;20060;-56
2023/04/20 10:38:48;;;;;;;89.22;12.45;;;11.90;87.40;;;;;;5028210;28;20026;-56
2023/04/20 10:41:14;;;;;;;93.05;12.85;;;11.90;87.60;;;;;;5027981;28;20040;-57
2023/04/20 10:43:42;;;;;;;82.75;11.10;;;11.90;87.50;;;;;;5045809;28;20017;-57
2023/04/20 10:46:23;;;;;;;93.85;10.85;;;12.00;87.60;;;;;;5029700;28;20029;-56
2023/04/20 10:49:02;;;;;;;82.38;11.40;;;12.00;87.40;;;;;;5047243;28;20067;-56
2023/04/20 10:51:28;;;;;;;77.75;10.88;;;12.00;87.30;;;;;;5063744;28;20055;-56
2023/04/20 10:54:04;;;;;;;69.53;10.05;;;12.00;88.00;;;;;;5064727;28;20120;-56
2023/04/20 10:56:46;;;;;;;73.28;9.65;;;12.00;87.40;;;;;;5048596;28;20053;-56
2023/04/20 10:59:16;;;;;;;68.82;10.02;;;11.90;87.20;;;;;;5065842;28;20063;-56
2023/04/20 11:01:42;;;;;;;60.53;9.07;;;12.00;87.30;;;;;;5066567;28;20036;-56
2023/04/20 11:04:09;;;;;;;43.70;7.93;;;12.00;87.40;;;;;;5064641;28;20096;-56
2023/04/20 11:06:35;;;;;;;87.28;10.20;;;11.90;87.30;;;;;;5065453;28;20067;-56
2023/04/20 11:09:01;;;;;;;88.55;12.48;;;12.00;87.30;;;;;;5038398;28;20021;-56
2023/04/20 11:11:27;;;;;;;50.38;7.55;;;11.90;87.50;;;;;;5045427;28;20033;-55
2023/04/20 11:14:13;;;;;;;62.17;8.30;;;11.90;87.40;;;;;;5045266;28;20053;-56
2023/04/20 11:16:38;;;;;;;60.70;8.90;;;12.00;87.10;;;;;;5045979;28;20041;-56
2023/04/20 11:19:04;;;;;;;73.90;9.52;;;12.00;87.20;;;;;;5045018;28;20189;-56
2023/04/20 11:21:41;;;;;;;66.35;9.50;;;12.00;88.10;;;;;;5045254;28;20034;-56
2023/04/20 11:24:18;;;;;;;74.80;10.07;;;12.00;87.60;;;;;;5045308;28;20026;-59
2023/04/20 11:26:44;;;;;;;77.72;9.60;;;12.00;87.60;;;;;;5044750;28;20444;-59
2023/04/20 11:29:10;;;;;;;66.40;8.20;;;11.90;87.60;;;;;;5044670;28;20045;-59
2023/04/20 11:31:35;;;;;;;63.05;8.50;;;11.90;87.70;;;;;;5045158;28;20025;-59
2023/04/20 11:34:02;;;;;;;58.65;7.78;;;11.90;87.90;;;;;;5044738;28;20025;-59
2023/04/20 11:36:28;;;;;;;37.97;7.85;;;11.80;88.00;;;;;;5044913;28;20044;-59
2023/04/20 11:38:54;;;;;;;42.35;7.25;;;11.80;88.00;;;;;;5047027;28;20132;-59
2023/04/20 11:41:20;;;;;;;52.00;7.82;;;11.80;88.10;;;;;;5044513;28;20040;-59
2023/04/20 11:43:47;;;;;;;39.50;6.82;;;11.80;88.10;;;;;;5044378;28;20041;-59
2023/04/20 11:46:19;;;;;;;41.97;7.13;;;11.80;88.10;;;;;;5044184;28;20052;-60
2023/04/20 11:48:46;;;;;;;38.83;6.50;;;11.80;88.20;;;;;;5043687;28;20048;-59
2023/04/20 11:51:12;;;;;;;42.90;6.20;;;11.80;88.40;;;;;;5027813;28;20434;-59
2023/04/20 11:53:37;;;;;;;47.22;7.88;;;11.80;88.30;;;;;;5029639;28;20029;-59
2023/04/20 11:56:03;;;;;;;39.55;6.32;;;11.80;88.50;;;;;;5044214;28;20025;-59
2023/04/20 11:58:29;;;;;;;35.00;6.28;;;11.80;88.40;;;;;;5044003;28;20036;-59
2023/04/20 12:00:55;;;;;;;46.00;7.10;;;11.80;88.60;;;;;;5046259;28;20025;-59
2023/04/20 12:03:20;;;;;;;46.40;6.30;;;11.70;88.60;;;;;;5044689;28;20402;-59
2023/04/20 12:05:46;;;;;;;26.50;5.43;;;11.70;88.70;;;;;;5045673;28;20033;-59
2023/04/20 12:08:13;;;;;;;25.00;4.75;;;11.70;88.80;;;;;;5045232;28;20106;-59
2023/04/20 12:10:39;;;;;;;29.67;5.93;;;11.70;88.60;;;;;;5044008;28;20072;-59
2023/04/20 12:13:04;;;;;;;26.23;5.32;;;11.70;88.70;;;;;;5044218;28;20037;-60
2023/04/20 12:15:30;;;;;;;39.10;5.60;;;11.70;88.70;;;;;;5044351;28;20108;-59
2023/04/20 12:17:56;;;;;;;22.73;4.85;;;11.70;88.80;;;;;;5044293;28;20049;-59
2023/04/20 12:20:22;;;;;;;24.67;5.80;;;11.70;88.90;;;;;;5045539;28;20169;-59
2023/04/20 12:22:47;;;;;;;33.50;5.18;;;11.60;89.00;;;;;;5043761;28;20036;-60
2023/04/20 12:25:13;;;;;;;50.53;5.55;;;11.60;89.10;;;;;;5043500;28;20052;-60
2023/04/20 12:27:38;;;;;;;50.65;5.45;;;11.60;89.40;;;;;;5043922;28;20469;-59
2023/04/20 12:30:05;;;;;;;34.40;5.85;;;11.60;89.30;;;;;;5043548;28;20041;-60